sensor_id;sensor_type;location;lat;lon;timestamp;temperature;humidity
36556;DHT22;40859;50.560;7.268;2022-07-23T04:40:40;25.00;99.90
36556;DHT22;40859;50.560;7.268;2022-07-23T04:43:06;25.10;99.90
36556;DHT22;40859;50.560;7.268;2022-07-23T04:45:31;25.10;99.90
36556;DHT22;40859;50.560;7.268;2022-07-23T04:47:57;25.10;99.90
36556;DHT22;40859;50.560;7.268;2022-07-23T04:50:24;25.10;99.90
36556;DHT22;40859;50.560;7.268;2022-07-23T04:52:50;25.20;99.90
36556;DHT22;40859;50.560;7.268;2022-07-23T04:55:16;25.10;99.90
36556;DHT22;40859;50.560;7.268;2022-07-23T04:57:42;25.10;99.90
36556;DHT22;40859;50.560;7.268;2022-07-23T05:00:09;25.10;99.90
36556;DHT22;40859;50.560;7.268;2022-07-23T05:02:36;25.10;99.90
36556;DHT22;40859;50.560;7.268;2022-07-23T05:05:02;25.10;99.90
36556;DHT22;40859;50.560;7.268;2022-07-23T05:07:29;25.10;99.90
36556;DHT22;40859;50.560;7.268;2022-07-23T05:09:55;25.10;99.90
36556;DHT22;40859;50.560;7.268;2022-07-23T05:12:21;25.20;99.90
36556;DHT22;40859;50.560;7.268;2022-07-23T05:14:48;25.20;99.90
36556;DHT22;40859;50.560;7.268;2022-07-23T05:17:13;25.10;99.90
36556;DHT22;40859;50.560;7.268;2022-07-23T05:19:40;25.10;99.90
36556;DHT22;40859;50.560;7.268;2022-07-23T05:22:06;25.10;99.90
36556;DHT22;40859;50.560;7.268;2022-07-23T05:24:32;25.10;99.90
36556;DHT22;40859;50.560;7.268;2022-07-23T05:26:58;25.10;99.90
36556;DHT22;40859;50.560;7.268;2022-07-23T05:29:24;25.10;99.90
36556;DHT22;40859;50.560;7.268;2022-07-23T05:31:49;25.20;99.90
36556;DHT22;40859;50.560;7.268;2022-07-23T05:34:15;25.10;99.90
36556;DHT22;40859;50.560;7.268;2022-07-23T05:36:41;25.10;99.90
36556;DHT22;40859;50.560;7.268;2022-07-23T05:39:07;25.10;99.90
36556;DHT22;40859;50.560;7.268;2022-07-23T05:41:33;25.10;99.90
36556;DHT22;40859;50.560;7.268;2022-07-23T05:43:58;25.10;99.90
36556;DHT22;40859;50.560;7.268;2022-07-23T05:46:24;25.20;99.90
36556;DHT22;40859;50.560;7.268;2022-07-23T05:48:50;25.10;99.90
36556;DHT22;40859;50.560;7.268;2022-07-23T05:51:23;25.10;99.90
36556;DHT22;40859;50.560;7.268;2022-07-23T05:53:49;25.20;99.90
36556;DHT22;40859;50.560;7.268;2022-07-23T05:56:16;25.20;99.90
36556;DHT22;40859;50.560;7.268;2022-07-23T05:58:42;25.10;99.90
36556;DHT22;40859;50.560;7.268;2022-07-23T06:01:08;25.10;99.90
36556;DHT22;40859;50.560;7.268;2022-07-23T06:03:34;25.10;99.90
36556;DHT22;40859;50.560;7.268;2022-07-23T06:06:00;25.10;99.90
36556;DHT22;40859;50.560;7.268;2022-07-23T06:08:26;25.10;99.90
36556;DHT22;40859;50.560;7.268;2022-07-23T06:10:52;25.10;99.90
36556;DHT22;40859;50.560;7.268;2022-07-23T06:13:18;25.10;99.90
36556;DHT22;40859;50.560;7.268;2022-07-23T06:15:44;25.10;99.90
36556;DHT22;40859;50.560;7.268;2022-07-23T06:18:10;25.10;99.90
36556;DHT22;40859;50.560;7.268;2022-07-23T06:20:36;25.10;99.90
36556;DHT22;40859;50.560;7.268;2022-07-23T06:23:03;25.10;99.90
36556;DHT22;40859;50.560;7.268;2022-07-23T06:25:29;25.10;99.90
36556;DHT22;40859;50.560;7.268;2022-07-23T06:27:55;25.10;99.90
36556;DHT22;40859;50.560;7.268;2022-07-23T06:30:21;25.10;99.90
36556;DHT22;40859;50.560;7.268;2022-07-23T06:32:48;25.10;99.90
36556;DHT22;40859;50.560;7.268;2022-07-23T06:35:14;25.10;99.90
36556;DHT22;40859;50.560;7.268;2022-07-23T06:37:40;25.10;99.90
36556;DHT22;40859;50.560;7.268;2022-07-23T06:40:07;25.10;99.90
36556;DHT22;40859;50.560;7.268;2022-07-23T06:42:33;25.10;99.90
36556;DHT22;40859;50.560;7.268;2022-07-23T06:45:04;25.10;99.90
36556;DHT22;40859;50.560;7.268;2022-07-23T06:47:30;25.10;99.90
36556;DHT22;40859;50.560;7.268;2022-07-23T06:49:55;25.10;99.90
36556;DHT22;40859;50.560;7.268;2022-07-23T06:52:21;25.10;99.90
36556;DHT22;40859;50.560;7.268;2022-07-23T06:54:47;25.10;99.90
36556;DHT22;40859;50.560;7.268;2022-07-23T06:57:13;25.10;99.90
36556;DHT22;40859;50.560;7.268;2022-07-23T06:59:39;25.10;99.90
36556;DHT22;40859;50.560;7.268;2022-07-23T07:02:07;25.10;99.90
36556;DHT22;40859;50.560;7.268;2022-07-23T07:04:33;25.10;99.90
36556;DHT22;40859;50.560;7.268;2022-07-23T07:06:59;25.10;99.90
36556;DHT22;40859;50.560;7.268;2022-07-23T07:09:25;25.10;99.90
36556;DHT22;40859;50.560;7.268;2022-07-23T07:11:51;25.10;99.90
36556;DHT22;40859;50.560;7.268;2022-07-23T07:14:18;25.10;99.90
36556;DHT22;40859;50.560;7.268;2022-07-23T07:16:44;25.10;99.90
36556;DHT22;40859;50.560;7.268;2022-07-23T07:19:10;25.10;99.90
36556;DHT22;40859;50.560;7.268;2022-07-23T07:21:36;25.10;99.90
36556;DHT22;40859;50.560;7.268;2022-07-23T07:24:02;25.10;99.90
36556;DHT22;40859;50.560;7.268;2022-07-23T07:26:28;25.10;99.90
36556;DHT22;40859;50.560;7.268;2022-07-23T07:28:55;25.10;99.90
36556;DHT22;40859;50.560;7.268;2022-07-23T07:31:20;25.10;99.90
36556;DHT22;40859;50.560;7.268;2022-07-23T07:33:46;25.10;99.90
36556;DHT22;40859;50.560;7.268;2022-07-23T07:36:13;25.10;99.90
36556;DHT22;40859;50.560;7.268;2022-07-23T07:38:39;25.10;99.90
36556;DHT22;40859;50.560;7.268;2022-07-23T07:41:05;25.10;99.90
36556;DHT22;40859;50.560;7.268;2022-07-23T07:43:31;25.10;99.90
36556;DHT22;40859;50.560;7.268;2022-07-23T07:45:56;25.10;99.90
36556;DHT22;40859;50.560;7.268;2022-07-23T07:48:22;25.10;99.90
36556;DHT22;40859;50.560;7.268;2022-07-23T07:50:48;25.10;99.90
36556;DHT22;40859;50.560;7.268;2022-07-23T07:53:14;25.10;99.90
36556;DHT22;40859;50.560;7.268;2022-07-23T07:55:40;25.10;99.90
36556;DHT22;40859;50.560;7.268;2022-07-23T07:58:06;25.10;99.90
36556;DHT22;40859;50.560;7.268;2022-07-23T08:00:31;25.10;99.90
36556;DHT22;40859;50.560;7.268;2022-07-23T08:02:58;25.10;99.90
36556;DHT22;40859;50.560;7.268;2022-07-23T08:05:26;25.10;99.90
36556;DHT22;40859;50.560;7.268;2022-07-23T08:07:53;25.10;99.90
36556;DHT22;40859;50.560;7.268;2022-07-23T08:10:19;25.10;99.90
36556;DHT22;40859;50.560;7.268;2022-07-23T08:12:47;25.10;99.90
36556;DHT22;40859;50.560;7.268;2022-07-23T08:15:15;25.10;99.90
36556;DHT22;40859;50.560;7.268;2022-07-23T08:17:42;25.10;99.90
36556;DHT22;40859;50.560;7.268;2022-07-23T08:20:10;25.10;99.90
36556;DHT22;40859;50.560;7.268;2022-07-23T08:22:49;25.10;99.90
36556;DHT22;40859;50.560;7.268;2022-07-23T08:25:16;25.10;99.90
36556;DHT22;40859;50.560;7.268;2022-07-23T08:27:43;25.10;99.90
36556;DHT22;40859;50.560;7.268;2022-07-23T08:30:09;25.10;99.90
36556;DHT22;40859;50.560;7.268;2022-07-23T08:33:01;25.10;99.90
36556;DHT22;40859;50.560;7.268;2022-07-23T08:35:37;25.10;99.90
36556;DHT22;40859;50.560;7.268;2022-07-23T08:38:09;25.00;99.90
36556;DHT22;40859;50.560;7.268;2022-07-23T08:40:36;25.00;99.90
36556;DHT22;40859;50.560;7.268;2022-07-23T08:43:06;25.00;99.90
36556;DHT22;40859;50.560;7.268;2022-07-23T08:45:39;25.00;99.90
36556;DHT22;40859;50.560;7.268;2022-07-23T08:48:16;25.00;99.90
36556;DHT22;40859;50.560;7.268;2022-07-23T08:50:44;25.10;99.90
36556;DHT22;40859;50.560;7.268;2022-07-23T08:53:11;25.00;99.90
36556;DHT22;40859;50.560;7.268;2022-07-23T08:55:38;25.10;99.90
36556;DHT22;40859;50.560;7.268;2022-07-23T08:58:03;25.10;99.90
36556;DHT22;40859;50.560;7.268;2022-07-23T09:00:30;25.00;99.90
36556;DHT22;40859;50.560;7.268;2022-07-23T09:02:56;25.10;99.90
36556;DHT22;40859;50.560;7.268;2022-07-23T09:05:22;25.00;99.90
36556;DHT22;40859;50.560;7.268;2022-07-23T09:11:19;25.00;99.90
36556;DHT22;40859;50.560;7.268;2022-07-23T09:13:53;25.00;99.90
36556;DHT22;40859;50.560;7.268;2022-07-23T09:16:29;25.00;99.90
36556;DHT22;40859;50.560;7.268;2022-07-23T09:18:57;25.00;99.90
36556;DHT22;40859;50.560;7.268;2022-07-23T09:21:41;25.10;99.90
36556;DHT22;40859;50.560;7.268;2022-07-23T09:24:12;25.10;99.90
36556;DHT22;40859;50.560;7.268;2022-07-23T09:26:46;25.10;99.90
36556;DHT22;40859;50.560;7.268;2022-07-23T09:29:17;25.10;99.90
36556;DHT22;40859;50.560;7.268;2022-07-23T09:31:57;25.10;99.90
36556;DHT22;40859;50.560;7.268;2022-07-23T09:34:32;25.10;99.90
36556;DHT22;40859;50.560;7.268;2022-07-23T09:39:46;25.00;99.90
36556;DHT22;40859;50.560;7.268;2022-07-23T09:42:22;25.00;99.90
36556;DHT22;40859;50.560;7.268;2022-07-23T09:44:50;25.10;99.90
36556;DHT22;40859;50.560;7.268;2022-07-23T09:47:17;25.00;99.90
36556;DHT22;40859;50.560;7.268;2022-07-23T09:50:06;25.10;99.90
36556;DHT22;40859;50.560;7.268;2022-07-23T09:52:44;25.10;99.90
36556;DHT22;40859;50.560;7.268;2022-07-23T09:55:12;25.10;99.90
36556;DHT22;40859;50.560;7.268;2022-07-23T09:57:40;25.00;99.90
36556;DHT22;40859;50.560;7.268;2022-07-23T10:00:08;25.10;99.90
36556;DHT22;40859;50.560;7.268;2022-07-23T10:02:37;25.10;99.90
36556;DHT22;40859;50.560;7.268;2022-07-23T10:05:04;25.10;99.90
36556;DHT22;40859;50.560;7.268;2022-07-23T10:07:37;25.10;99.90
36556;DHT22;40859;50.560;7.268;2022-07-23T10:10:05;25.10;99.90
36556;DHT22;40859;50.560;7.268;2022-07-23T10:12:31;25.10;99.90
36556;DHT22;40859;50.560;7.268;2022-07-23T10:18:30;25.10;99.90
36556;DHT22;40859;50.560;7.268;2022-07-23T10:20:56;25.10;99.90
36556;DHT22;40859;50.560;7.268;2022-07-23T10:31:10;25.10;99.90
36556;DHT22;40859;50.560;7.268;2022-07-23T10:33:52;25.10;99.90
36556;DHT22;40859;50.560;7.268;2022-07-23T10:40:23;25.10;99.90
36556;DHT22;40859;50.560;7.268;2022-07-23T10:42:51;25.10;99.90
36556;DHT22;40859;50.560;7.268;2022-07-23T16:45:48;25.60;99.60
36556;DHT22;40859;50.560;7.268;2022-07-23T16:48:14;25.60;99.60
36556;DHT22;40859;50.560;7.268;2022-07-23T16:50:40;25.60;99.50
36556;DHT22;40859;50.560;7.268;2022-07-23T16:53:06;25.70;99.70
36556;DHT22;40859;50.560;7.268;2022-07-23T16:55:32;25.60;99.70
36556;DHT22;40859;50.560;7.268;2022-07-23T16:57:58;25.70;99.70
36556;DHT22;40859;50.560;7.268;2022-07-23T17:00:23;25.70;99.80
36556;DHT22;40859;50.560;7.268;2022-07-23T17:02:49;25.70;99.70
36556;DHT22;40859;50.560;7.268;2022-07-23T17:05:15;25.70;99.70
36556;DHT22;40859;50.560;7.268;2022-07-23T17:07:41;25.60;99.50
36556;DHT22;40859;50.560;7.268;2022-07-23T17:10:08;25.60;99.60
36556;DHT22;40859;50.560;7.268;2022-07-23T17:12:36;25.70;99.60
36556;DHT22;40859;50.560;7.268;2022-07-23T17:15:02;25.70;99.60
36556;DHT22;40859;50.560;7.268;2022-07-23T17:17:29;25.70;99.70
36556;DHT22;40859;50.560;7.268;2022-07-23T17:19:55;25.70;99.70
36556;DHT22;40859;50.560;7.268;2022-07-23T17:22:20;25.70;99.70
36556;DHT22;40859;50.560;7.268;2022-07-23T17:24:46;25.70;99.70
36556;DHT22;40859;50.560;7.268;2022-07-23T17:27:12;25.70;99.60
36556;DHT22;40859;50.560;7.268;2022-07-23T17:29:38;25.70;99.60
36556;DHT22;40859;50.560;7.268;2022-07-23T17:32:04;25.70;99.60
36556;DHT22;40859;50.560;7.268;2022-07-23T17:34:31;25.70;99.10
36556;DHT22;40859;50.560;7.268;2022-07-23T17:36:57;25.70;99.30
36556;DHT22;40859;50.560;7.268;2022-07-23T17:39:22;25.70;99.20
36556;DHT22;40859;50.560;7.268;2022-07-23T17:41:48;25.60;99.20
36556;DHT22;40859;50.560;7.268;2022-07-23T17:44:16;25.70;99.20
36556;DHT22;40859;50.560;7.268;2022-07-23T17:46:42;25.70;99.20
36556;DHT22;40859;50.560;7.268;2022-07-23T17:49:09;25.70;99.30
36556;DHT22;40859;50.560;7.268;2022-07-23T17:51:35;25.70;99.20
36556;DHT22;40859;50.560;7.268;2022-07-23T17:54:02;25.70;99.20
36556;DHT22;40859;50.560;7.268;2022-07-23T17:56:28;25.80;99.20
36556;DHT22;40859;50.560;7.268;2022-07-23T17:58:54;25.80;99.30
36556;DHT22;40859;50.560;7.268;2022-07-23T18:01:21;25.80;99.30
36556;DHT22;40859;50.560;7.268;2022-07-23T18:03:47;25.80;99.30
36556;DHT22;40859;50.560;7.268;2022-07-23T18:06:15;25.80;99.30
36556;DHT22;40859;50.560;7.268;2022-07-23T18:08:41;25.80;99.30
36556;DHT22;40859;50.560;7.268;2022-07-23T18:11:07;25.80;99.30
36556;DHT22;40859;50.560;7.268;2022-07-23T18:13:33;25.80;99.40
36556;DHT22;40859;50.560;7.268;2022-07-23T18:15:59;25.80;99.40
36556;DHT22;40859;50.560;7.268;2022-07-23T18:18:26;25.80;99.40
36556;DHT22;40859;50.560;7.268;2022-07-23T18:20:54;25.80;99.40
36556;DHT22;40859;50.560;7.268;2022-07-23T18:23:20;25.80;99.50
36556;DHT22;40859;50.560;7.268;2022-07-23T18:25:46;25.80;99.50
36556;DHT22;40859;50.560;7.268;2022-07-23T18:28:12;25.80;99.50
36556;DHT22;40859;50.560;7.268;2022-07-23T18:30:38;25.80;99.60
36556;DHT22;40859;50.560;7.268;2022-07-23T18:33:04;25.80;99.50
36556;DHT22;40859;50.560;7.268;2022-07-23T18:35:29;25.80;99.50
36556;DHT22;40859;50.560;7.268;2022-07-23T18:37:55;25.80;99.60
36556;DHT22;40859;50.560;7.268;2022-07-23T18:40:22;25.80;99.60
36556;DHT22;40859;50.560;7.268;2022-07-23T18:42:48;25.80;99.60
36556;DHT22;40859;50.560;7.268;2022-07-23T18:45:14;25.80;99.60
36556;DHT22;40859;50.560;7.268;2022-07-23T18:47:40;25.80;99.60
36556;DHT22;40859;50.560;7.268;2022-07-23T18:50:09;25.80;99.60
36556;DHT22;40859;50.560;7.268;2022-07-23T18:52:35;25.80;99.70
36556;DHT22;40859;50.560;7.268;2022-07-23T18:55:01;25.80;99.70
36556;DHT22;40859;50.560;7.268;2022-07-23T18:57:27;25.80;99.70
36556;DHT22;40859;50.560;7.268;2022-07-23T18:59:53;25.80;99.70
36556;DHT22;40859;50.560;7.268;2022-07-23T19:02:19;25.80;99.70
36556;DHT22;40859;50.560;7.268;2022-07-23T19:04:45;25.80;99.70
36556;DHT22;40859;50.560;7.268;2022-07-23T19:07:11;25.80;99.70
36556;DHT22;40859;50.560;7.268;2022-07-23T19:09:36;25.80;99.80
36556;DHT22;40859;50.560;7.268;2022-07-23T19:12:03;25.80;99.80
36556;DHT22;40859;50.560;7.268;2022-07-23T19:14:28;25.80;99.80
36556;DHT22;40859;50.560;7.268;2022-07-23T19:16:54;25.80;99.80
36556;DHT22;40859;50.560;7.268;2022-07-23T19:19:20;25.80;99.80
36556;DHT22;40859;50.560;7.268;2022-07-23T19:21:47;25.80;99.80
36556;DHT22;40859;50.560;7.268;2022-07-23T19:24:13;25.80;99.90
36556;DHT22;40859;50.560;7.268;2022-07-23T19:26:39;25.80;99.80
36556;DHT22;40859;50.560;7.268;2022-07-23T19:29:05;25.80;99.90
36556;DHT22;40859;50.560;7.268;2022-07-23T19:31:31;25.80;99.90
36556;DHT22;40859;50.560;7.268;2022-07-23T19:33:57;25.80;99.90
36556;DHT22;40859;50.560;7.268;2022-07-23T19:36:23;25.80;99.90
36556;DHT22;40859;50.560;7.268;2022-07-23T19:38:49;25.80;99.90
36556;DHT22;40859;50.560;7.268;2022-07-23T19:41:16;25.80;99.90
36556;DHT22;40859;50.560;7.268;2022-07-23T19:43:42;25.80;99.90
36556;DHT22;40859;50.560;7.268;2022-07-23T19:46:10;25.80;99.90
36556;DHT22;40859;50.560;7.268;2022-07-23T19:48:37;25.80;99.90
36556;DHT22;40859;50.560;7.268;2022-07-23T19:51:03;25.80;99.90
36556;DHT22;40859;50.560;7.268;2022-07-23T19:53:29;25.80;99.90
36556;DHT22;40859;50.560;7.268;2022-07-23T19:55:55;25.80;99.90
36556;DHT22;40859;50.560;7.268;2022-07-23T19:58:21;25.80;99.90
36556;DHT22;40859;50.560;7.268;2022-07-23T20:00:46;25.80;99.90
36556;DHT22;40859;50.560;7.268;2022-07-23T20:03:12;25.80;99.90
36556;DHT22;40859;50.560;7.268;2022-07-23T20:05:38;25.80;99.90
36556;DHT22;40859;50.560;7.268;2022-07-23T20:08:04;25.80;99.90
36556;DHT22;40859;50.560;7.268;2022-07-23T20:10:31;25.80;99.90
36556;DHT22;40859;50.560;7.268;2022-07-23T20:12:57;25.80;99.90
36556;DHT22;40859;50.560;7.268;2022-07-23T20:15:23;25.80;99.90
36556;DHT22;40859;50.560;7.268;2022-07-23T20:17:49;25.80;99.90
36556;DHT22;40859;50.560;7.268;2022-07-23T20:20:15;25.80;99.90
36556;DHT22;40859;50.560;7.268;2022-07-23T20:22:41;25.70;99.90
36556;DHT22;40859;50.560;7.268;2022-07-23T20:25:08;25.70;99.90
36556;DHT22;40859;50.560;7.268;2022-07-23T20:27:34;25.60;99.90
36556;DHT22;40859;50.560;7.268;2022-07-23T20:30:00;25.50;99.90
36556;DHT22;40859;50.560;7.268;2022-07-23T20:32:25;25.50;99.90
36556;DHT22;40859;50.560;7.268;2022-07-23T20:34:51;25.40;99.90
36556;DHT22;40859;50.560;7.268;2022-07-23T20:37:17;25.40;99.90
36556;DHT22;40859;50.560;7.268;2022-07-23T20:39:44;25.40;99.90
36556;DHT22;40859;50.560;7.268;2022-07-23T20:42:09;25.40;99.90
36556;DHT22;40859;50.560;7.268;2022-07-23T20:44:35;25.40;99.90
36556;DHT22;40859;50.560;7.268;2022-07-23T20:47:01;25.30;99.90
36556;DHT22;40859;50.560;7.268;2022-07-23T20:49:27;25.30;99.90
36556;DHT22;40859;50.560;7.268;2022-07-23T20:51:53;25.20;99.90
36556;DHT22;40859;50.560;7.268;2022-07-23T20:54:18;25.20;99.90
36556;DHT22;40859;50.560;7.268;2022-07-23T20:56:44;25.10;99.90
36556;DHT22;40859;50.560;7.268;2022-07-23T20:59:10;25.10;99.90
36556;DHT22;40859;50.560;7.268;2022-07-23T21:01:36;25.00;99.90
36556;DHT22;40859;50.560;7.268;2022-07-23T21:04:02;25.00;99.90
36556;DHT22;40859;50.560;7.268;2022-07-23T21:06:28;25.00;99.90
36556;DHT22;40859;50.560;7.268;2022-07-23T21:08:54;24.90;99.90
36556;DHT22;40859;50.560;7.268;2022-07-23T21:11:20;24.90;99.90
36556;DHT22;40859;50.560;7.268;2022-07-23T21:13:46;24.90;99.90
36556;DHT22;40859;50.560;7.268;2022-07-23T21:16:12;24.90;99.90
36556;DHT22;40859;50.560;7.268;2022-07-23T21:18:38;24.90;99.90
36556;DHT22;40859;50.560;7.268;2022-07-23T21:21:04;24.90;99.90
36556;DHT22;40859;50.560;7.268;2022-07-23T21:23:34;24.90;99.90
36556;DHT22;40859;50.560;7.268;2022-07-23T21:26:01;24.90;99.90
36556;DHT22;40859;50.560;7.268;2022-07-23T21:28:26;24.90;99.90
36556;DHT22;40859;50.560;7.268;2022-07-23T21:30:52;24.90;99.90
36556;DHT22;40859;50.560;7.268;2022-07-23T21:33:18;24.90;99.90
36556;DHT22;40859;50.560;7.268;2022-07-23T21:35:44;24.80;99.90
36556;DHT22;40859;50.560;7.268;2022-07-23T21:38:09;24.80;99.90
36556;DHT22;40859;50.560;7.268;2022-07-23T21:40:35;24.70;99.90
36556;DHT22;40859;50.560;7.268;2022-07-23T21:43:02;24.70;99.90
36556;DHT22;40859;50.560;7.268;2022-07-23T21:45:28;24.70;99.90
36556;DHT22;40859;50.560;7.268;2022-07-23T21:47:54;24.60;99.90
36556;DHT22;40859;50.560;7.268;2022-07-23T21:50:20;24.40;99.90
36556;DHT22;40859;50.560;7.268;2022-07-23T21:52:46;24.40;99.90
36556;DHT22;40859;50.560;7.268;2022-07-23T21:55:14;24.30;99.90
36556;DHT22;40859;50.560;7.268;2022-07-23T21:57:40;24.30;99.90
36556;DHT22;40859;50.560;7.268;2022-07-23T22:00:12;24.30;99.90
36556;DHT22;40859;50.560;7.268;2022-07-23T22:02:38;24.30;99.90
36556;DHT22;40859;50.560;7.268;2022-07-23T22:05:05;24.30;99.90
36556;DHT22;40859;50.560;7.268;2022-07-23T22:07:31;24.30;99.90
36556;DHT22;40859;50.560;7.268;2022-07-23T22:09:56;24.40;99.90
36556;DHT22;40859;50.560;7.268;2022-07-23T22:12:22;24.40;99.90
36556;DHT22;40859;50.560;7.268;2022-07-23T22:14:48;24.30;99.90
36556;DHT22;40859;50.560;7.268;2022-07-23T22:17:15;24.40;99.90
36556;DHT22;40859;50.560;7.268;2022-07-23T22:19:40;24.40;99.90
36556;DHT22;40859;50.560;7.268;2022-07-23T22:22:06;24.30;99.90
36556;DHT22;40859;50.560;7.268;2022-07-23T22:24:32;24.30;99.90
36556;DHT22;40859;50.560;7.268;2022-07-23T22:26:58;24.30;99.90
36556;DHT22;40859;50.560;7.268;2022-07-23T22:29:24;24.30;99.90
36556;DHT22;40859;50.560;7.268;2022-07-23T22:31:50;24.20;99.90
36556;DHT22;40859;50.560;7.268;2022-07-23T22:34:16;24.20;99.90
36556;DHT22;40859;50.560;7.268;2022-07-23T22:36:41;24.20;99.90
36556;DHT22;40859;50.560;7.268;2022-07-23T22:39:07;24.10;99.90
36556;DHT22;40859;50.560;7.268;2022-07-23T22:41:33;24.10;99.90
36556;DHT22;40859;50.560;7.268;2022-07-23T22:43:59;24.10;99.90
